sensor_id;sensor_type;location;lat;lon;timestamp;pressure;altitude;pressure_sealevel;temperature;humidity
59971;BME280;45825;45.434;9.116;2023-05-23T00:00:57;100057.78;;;20.62;71.23
59971;BME280;45825;45.434;9.116;2023-05-23T00:03:26;100057.94;;;20.60;71.03
59971;BME280;45825;45.434;9.116;2023-05-23T00:05:53;100056.78;;;20.63;71.02
59971;BME280;45825;45.434;9.116;2023-05-23T00:08:22;100043.75;;;20.60;70.94
59971;BME280;45825;45.434;9.116;2023-05-23T00:10:47;100052.38;;;20.54;71.27
59971;BME280;45825;45.434;9.116;2023-05-23T00:13:13;100044.50;;;20.52;71.07
59971;BME280;45825;45.434;9.116;2023-05-23T00:15:39;100051.06;;;20.58;70.80
59971;BME280;45825;45.434;9.116;2023-05-23T00:18:05;100047.63;;;20.47;71.28
59971;BME280;45825;45.434;9.116;2023-05-23T00:20:33;100045.69;;;20.49;71.05
59971;BME280;45825;45.434;9.116;2023-05-23T00:23:00;100044.41;;;20.35;71.61
59971;BME280;45825;45.434;9.116;2023-05-23T00:25:27;100038.38;;;20.33;71.51
59971;BME280;45825;45.434;9.116;2023-05-23T00:27:58;100039.97;;;20.26;71.44
59971;BME280;45825;45.434;9.116;2023-05-23T00:30:24;100034.94;;;20.23;71.96
59971;BME280;45825;45.434;9.116;2023-05-23T00:32:52;100031.66;;;20.29;71.58
59971;BME280;45825;45.434;9.116;2023-05-23T00:35:19;100035.22;;;20.20;71.71
59971;BME280;45825;45.434;9.116;2023-05-23T00:37:46;100031.09;;;20.26;71.64
59971;BME280;45825;45.434;9.116;2023-05-23T00:40:12;100029.28;;;20.26;70.94
59971;BME280;45825;45.434;9.116;2023-05-23T00:42:37;100025.09;;;20.23;70.57
59971;BME280;45825;45.434;9.116;2023-05-23T00:45:03;100026.06;;;20.22;70.50
59971;BME280;45825;45.434;9.116;2023-05-23T00:47:29;100025.75;;;20.26;70.27
59971;BME280;45825;45.434;9.116;2023-05-23T00:49:54;100019.22;;;20.20;70.78
59971;BME280;45825;45.434;9.116;2023-05-23T00:52:20;100021.50;;;20.15;70.74
59971;BME280;45825;45.434;9.116;2023-05-23T00:54:46;100012.38;;;20.17;71.02
59971;BME280;45825;45.434;9.116;2023-05-23T00:57:11;100015.53;;;20.21;70.27
59971;BME280;45825;45.434;9.116;2023-05-23T00:59:36;100004.94;;;20.11;70.92
59971;BME280;45825;45.434;9.116;2023-05-23T01:02:02;100011.06;;;20.03;71.92
59971;BME280;45825;45.434;9.116;2023-05-23T01:04:27;100017.53;;;20.01;72.07
59971;BME280;45825;45.434;9.116;2023-05-23T01:06:54;100014.50;;;19.95;71.98
59971;BME280;45825;45.434;9.116;2023-05-23T01:09:22;100029.81;;;19.93;72.32
59971;BME280;45825;45.434;9.116;2023-05-23T01:14:31;100027.16;;;19.93;72.19
59971;BME280;45825;45.434;9.116;2023-05-23T01:17:19;100021.34;;;19.98;72.00
59971;BME280;45825;45.434;9.116;2023-05-23T01:20:08;100025.31;;;19.94;71.55
59971;BME280;45825;45.434;9.116;2023-05-23T01:28:26;100018.66;;;19.80;72.19
59971;BME280;45825;45.434;9.116;2023-05-23T01:30:56;100025.19;;;19.67;72.40
59971;BME280;45825;45.434;9.116;2023-05-23T01:33:24;100018.56;;;19.72;72.29
59971;BME280;45825;45.434;9.116;2023-05-23T01:35:50;100018.41;;;19.73;72.44
59971;BME280;45825;45.434;9.116;2023-05-23T01:38:16;100022.75;;;19.74;72.58
59971;BME280;45825;45.434;9.116;2023-05-23T01:40:42;100018.56;;;19.72;73.35
59971;BME280;45825;45.434;9.116;2023-05-23T01:43:07;100019.28;;;19.74;73.27
59971;BME280;45825;45.434;9.116;2023-05-23T01:45:33;100018.03;;;19.68;74.05
59971;BME280;45825;45.434;9.116;2023-05-23T01:47:59;100014.94;;;19.73;73.83
59971;BME280;45825;45.434;9.116;2023-05-23T01:50:26;100016.19;;;19.68;73.71
59971;BME280;45825;45.434;9.116;2023-05-23T01:52:52;100021.72;;;19.67;74.67
59971;BME280;45825;45.434;9.116;2023-05-23T01:55:19;100014.84;;;19.64;74.33
59971;BME280;45825;45.434;9.116;2023-05-23T01:57:49;100018.94;;;19.59;74.05
59971;BME280;45825;45.434;9.116;2023-05-23T02:00:15;100009.19;;;19.67;73.51
59971;BME280;45825;45.434;9.116;2023-05-23T02:02:41;100010.72;;;19.70;73.86
59971;BME280;45825;45.434;9.116;2023-05-23T02:05:08;100011.03;;;19.67;74.06
59971;BME280;45825;45.434;9.116;2023-05-23T02:07:33;100015.22;;;19.69;73.96
59971;BME280;45825;45.434;9.116;2023-05-23T02:09:59;100012.16;;;19.64;74.57
59971;BME280;45825;45.434;9.116;2023-05-23T02:12:24;100016.84;;;19.52;75.85
59971;BME280;45825;45.434;9.116;2023-05-23T02:14:49;100007.59;;;19.57;75.82
59971;BME280;45825;45.434;9.116;2023-05-23T02:17:17;100006.81;;;19.46;76.06
59971;BME280;45825;45.434;9.116;2023-05-23T02:19:43;100017.47;;;19.46;76.41
59971;BME280;45825;45.434;9.116;2023-05-23T02:22:08;100017.75;;;19.43;76.63
59971;BME280;45825;45.434;9.116;2023-05-23T02:24:33;100016.72;;;19.26;77.62
59971;BME280;45825;45.434;9.116;2023-05-23T02:26:59;100019.75;;;19.13;78.25
59971;BME280;45825;45.434;9.116;2023-05-23T02:29:24;100022.13;;;19.06;79.38
59971;BME280;45825;45.434;9.116;2023-05-23T02:31:50;100015.44;;;19.02;79.17
59971;BME280;45825;45.434;9.116;2023-05-23T02:34:15;100015.44;;;19.02;80.02
59971;BME280;45825;45.434;9.116;2023-05-23T02:36:40;100014.44;;;19.03;80.66
59971;BME280;45825;45.434;9.116;2023-05-23T02:39:06;100014.41;;;19.13;79.63
59971;BME280;45825;45.434;9.116;2023-05-23T02:41:31;100011.47;;;19.06;80.45
59971;BME280;45825;45.434;9.116;2023-05-23T02:43:57;100009.25;;;19.02;80.52
59971;BME280;45825;45.434;9.116;2023-05-23T02:46:22;100004.06;;;19.00;80.30
59971;BME280;45825;45.434;9.116;2023-05-23T02:48:48;100011.47;;;18.96;80.59
59971;BME280;45825;45.434;9.116;2023-05-23T02:51:13;100009.13;;;18.93;80.67
59971;BME280;45825;45.434;9.116;2023-05-23T02:53:39;100007.03;;;18.87;80.99
59971;BME280;45825;45.434;9.116;2023-05-23T02:56:05;100011.72;;;18.75;82.08
59971;BME280;45825;45.434;9.116;2023-05-23T02:58:32;100008.34;;;18.63;83.07
59971;BME280;45825;45.434;9.116;2023-05-23T03:01:00;100011.59;;;18.57;83.45
59971;BME280;45825;45.434;9.116;2023-05-23T03:03:26;100016.66;;;18.60;83.90
59971;BME280;45825;45.434;9.116;2023-05-23T03:05:53;100021.25;;;18.58;83.91
59971;BME280;45825;45.434;9.116;2023-05-23T03:08:18;100016.50;;;18.62;84.11
59971;BME280;45825;45.434;9.116;2023-05-23T03:10:43;100008.34;;;18.63;84.08
59971;BME280;45825;45.434;9.116;2023-05-23T03:13:08;100009.31;;;18.72;83.35
59971;BME280;45825;45.434;9.116;2023-05-23T03:15:34;100009.31;;;18.72;83.15
59971;BME280;45825;45.434;9.116;2023-05-23T03:17:59;100008.00;;;18.86;83.03
59971;BME280;45825;45.434;9.116;2023-05-23T03:20:24;100012.34;;;18.87;84.00
59971;BME280;45825;45.434;9.116;2023-05-23T03:22:50;100012.34;;;18.97;83.16
59971;BME280;45825;45.434;9.116;2023-05-23T03:25:15;100019.38;;;18.88;83.43
59971;BME280;45825;45.434;9.116;2023-05-23T03:27:40;100016.56;;;18.90;83.26
59971;BME280;45825;45.434;9.116;2023-05-23T03:30:06;100011.09;;;18.91;83.13
59971;BME280;45825;45.434;9.116;2023-05-23T03:32:32;100020.34;;;18.87;83.83
59971;BME280;45825;45.434;9.116;2023-05-23T03:34:57;100023.16;;;18.85;83.03
59971;BME280;45825;45.434;9.116;2023-05-23T03:37:22;100020.09;;;18.80;83.52
59971;BME280;45825;45.434;9.116;2023-05-23T03:39:47;100019.78;;;18.83;83.38
59971;BME280;45825;45.434;9.116;2023-05-23T03:42:13;100025.28;;;18.82;83.12
59971;BME280;45825;45.434;9.116;2023-05-23T03:44:38;100016.88;;;18.77;82.85
59971;BME280;45825;45.434;9.116;2023-05-23T03:47:03;100014.97;;;18.59;84.20
59971;BME280;45825;45.434;9.116;2023-05-23T03:49:29;100020.69;;;18.64;84.24
59971;BME280;45825;45.434;9.116;2023-05-23T03:51:54;100015.94;;;18.58;84.80
59971;BME280;45825;45.434;9.116;2023-05-23T03:54:19;100018.16;;;18.63;85.47
59971;BME280;45825;45.434;9.116;2023-05-23T03:56:45;100014.41;;;18.55;86.38
59971;BME280;45825;45.434;9.116;2023-05-23T03:59:10;100025.59;;;18.69;85.36
59971;BME280;45825;45.434;9.116;2023-05-23T04:01:35;100013.69;;;18.63;85.36
59971;BME280;45825;45.434;9.116;2023-05-23T04:04:01;100017.72;;;18.67;84.92
59971;BME280;45825;45.434;9.116;2023-05-23T04:06:27;100024.59;;;18.70;85.04
59971;BME280;45825;45.434;9.116;2023-05-23T04:08:55;100023.19;;;18.76;84.54
59971;BME280;45825;45.434;9.116;2023-05-23T04:11:21;100026.84;;;18.75;84.50
59971;BME280;45825;45.434;9.116;2023-05-23T04:13:46;100028.13;;;18.70;84.77
59971;BME280;45825;45.434;9.116;2023-05-23T04:16:12;100024.47;;;18.62;86.42
59971;BME280;45825;45.434;9.116;2023-05-23T04:18:37;100026.59;;;18.68;86.06
59971;BME280;45825;45.434;9.116;2023-05-23T04:21:03;100025.03;;;18.65;85.37
59971;BME280;45825;45.434;9.116;2023-05-23T04:23:28;100028.56;;;18.56;86.04
59971;BME280;45825;45.434;9.116;2023-05-23T04:25:54;100026.59;;;18.58;85.96
59971;BME280;45825;45.434;9.116;2023-05-23T04:28:21;100022.28;;;18.47;86.78
59971;BME280;45825;45.434;9.116;2023-05-23T04:30:46;100032.38;;;18.43;86.74
59971;BME280;45825;45.434;9.116;2023-05-23T04:33:13;100038.69;;;18.33;87.87
59971;BME280;45825;45.434;9.116;2023-05-23T04:35:39;100035.47;;;18.19;89.01
59971;BME280;45825;45.434;9.116;2023-05-23T04:38:05;100041.06;;;18.16;89.93
59971;BME280;45825;45.434;9.116;2023-05-23T04:40:30;100039.09;;;18.18;89.78
59971;BME280;45825;45.434;9.116;2023-05-23T04:42:55;100047.53;;;18.23;89.99
59971;BME280;45825;45.434;9.116;2023-05-23T04:45:21;100041.06;;;18.16;90.36
59971;BME280;45825;45.434;9.116;2023-05-23T04:47:47;100043.31;;;18.11;90.78
59971;BME280;45825;45.434;9.116;2023-05-23T04:50:12;100049.34;;;18.13;91.68
59971;BME280;45825;45.434;9.116;2023-05-23T04:52:40;100050.44;;;18.20;91.55
59971;BME280;45825;45.434;9.116;2023-05-23T04:55:06;100046.25;;;18.27;91.24
59971;BME280;45825;45.434;9.116;2023-05-23T04:57:33;100056.06;;;18.37;90.72
59971;BME280;45825;45.434;9.116;2023-05-23T04:59:58;100050.19;;;18.43;90.05
59971;BME280;45825;45.434;9.116;2023-05-23T05:02:25;100049.63;;;18.39;89.84
59971;BME280;45825;45.434;9.116;2023-05-23T05:04:51;100048.34;;;18.43;89.23
59971;BME280;45825;45.434;9.116;2023-05-23T05:07:16;100045.13;;;18.50;89.21
59971;BME280;45825;45.434;9.116;2023-05-23T05:09:42;100052.81;;;18.63;88.63
59971;BME280;45825;45.434;9.116;2023-05-23T05:12:07;100047.78;;;18.69;88.38
59971;BME280;45825;45.434;9.116;2023-05-23T05:14:32;100053.19;;;18.78;87.92
59971;BME280;45825;45.434;9.116;2023-05-23T05:16:58;100051.13;;;18.62;88.66
59971;BME280;45825;45.434;9.116;2023-05-23T05:19:23;100058.56;;;18.68;88.44
59971;BME280;45825;45.434;9.116;2023-05-23T05:21:49;100054.19;;;18.77;87.97
59971;BME280;45825;45.434;9.116;2023-05-23T05:24:15;100052.63;;;18.84;88.05
59971;BME280;45825;45.434;9.116;2023-05-23T05:26:41;100055.25;;;18.94;87.93
59971;BME280;45825;45.434;9.116;2023-05-23T05:29:06;100058.94;;;19.03;87.28
59971;BME280;45825;45.434;9.116;2023-05-23T05:31:31;100059.88;;;19.11;87.56
59971;BME280;45825;45.434;9.116;2023-05-23T05:33:57;100053.66;;;19.21;86.59
59971;BME280;45825;45.434;9.116;2023-05-23T05:36:23;100048.50;;;18.99;86.80
59971;BME280;45825;45.434;9.116;2023-05-23T05:38:48;100050.47;;;19.07;85.57
59971;BME280;45825;45.434;9.116;2023-05-23T05:41:13;100040.22;;;19.12;85.18
59971;BME280;45825;45.434;9.116;2023-05-23T05:43:38;100048.88;;;19.24;84.73
59971;BME280;45825;45.434;9.116;2023-05-23T05:46:04;100051.19;;;19.37;84.05
59971;BME280;45825;45.434;9.116;2023-05-23T05:48:29;100051.44;;;19.44;83.64
59971;BME280;45825;45.434;9.116;2023-05-23T05:50:55;100050.72;;;19.52;82.93
59971;BME280;45825;45.434;9.116;2023-05-23T05:53:20;100052.28;;;19.45;82.75
59971;BME280;45825;45.434;9.116;2023-05-23T05:55:45;100055.28;;;19.42;82.55
59971;BME280;45825;45.434;9.116;2023-05-23T05:58:11;100053.59;;;19.40;82.90
59971;BME280;45825;45.434;9.116;2023-05-23T06:00:36;100058.38;;;19.37;81.80
59971;BME280;45825;45.434;9.116;2023-05-23T06:03:07;100065.22;;;19.39;82.71
59971;BME280;45825;45.434;9.116;2023-05-23T06:05:32;100063.34;;;19.50;82.70
59971;BME280;45825;45.434;9.116;2023-05-23T06:07:58;100063.97;;;19.44;83.24
59971;BME280;45825;45.434;9.116;2023-05-23T06:10:23;100056.25;;;19.40;83.54
59971;BME280;45825;45.434;9.116;2023-05-23T06:12:49;100061.66;;;19.49;82.13
59971;BME280;45825;45.434;9.116;2023-05-23T06:15:14;100057.19;;;19.49;81.16
59971;BME280;45825;45.434;9.116;2023-05-23T06:17:40;100063.69;;;19.65;81.77
59971;BME280;45825;45.434;9.116;2023-05-23T06:20:06;100062.97;;;19.73;81.21
59971;BME280;45825;45.434;9.116;2023-05-23T06:22:32;100063.19;;;19.79;80.81
59971;BME280;45825;45.434;9.116;2023-05-23T06:24:57;100062.50;;;19.77;80.94
59971;BME280;45825;45.434;9.116;2023-05-23T06:27:23;100066.69;;;19.80;80.93
59971;BME280;45825;45.434;9.116;2023-05-23T06:29:48;100066.38;;;19.93;80.79
59971;BME280;45825;45.434;9.116;2023-05-23T06:32:13;100062.72;;;19.94;80.51
59971;BME280;45825;45.434;9.116;2023-05-23T06:34:40;100060.59;;;19.98;80.10
59971;BME280;45825;45.434;9.116;2023-05-23T06:37:05;100062.34;;;20.07;79.84
59971;BME280;45825;45.434;9.116;2023-05-23T06:39:31;100060.66;;;20.06;79.94
59971;BME280;45825;45.434;9.116;2023-05-23T06:41:56;100053.25;;;20.18;79.40
59971;BME280;45825;45.434;9.116;2023-05-23T06:44:21;100059.53;;;20.27;79.82
59971;BME280;45825;45.434;9.116;2023-05-23T06:46:47;100057.66;;;20.45;79.78
59971;BME280;45825;45.434;9.116;2023-05-23T06:49:13;100063.84;;;20.46;78.92
59971;BME280;45825;45.434;9.116;2023-05-23T06:51:39;100057.13;;;20.42;76.79
59971;BME280;45825;45.434;9.116;2023-05-23T06:54:04;100064.53;;;20.48;76.89
59971;BME280;45825;45.434;9.116;2023-05-23T06:56:30;100056.72;;;20.55;75.71
59971;BME280;45825;45.434;9.116;2023-05-23T06:58:55;100048.38;;;20.58;76.15
59971;BME280;45825;45.434;9.116;2023-05-23T07:01:20;100054.66;;;20.66;75.67
59971;BME280;45825;45.434;9.116;2023-05-23T07:03:46;100054.41;;;20.78;75.24
59971;BME280;45825;45.434;9.116;2023-05-23T07:06:11;100047.63;;;20.84;75.42
59971;BME280;45825;45.434;9.116;2023-05-23T07:08:37;100044.28;;;20.90;75.75
59971;BME280;45825;45.434;9.116;2023-05-23T07:11:03;100044.81;;;20.93;76.23
59971;BME280;45825;45.434;9.116;2023-05-23T07:13:28;100036.78;;;20.93;75.59
59971;BME280;45825;45.434;9.116;2023-05-23T07:15:54;100035.50;;;21.06;75.10
59971;BME280;45825;45.434;9.116;2023-05-23T07:18:20;100043.25;;;21.09;74.69
59971;BME280;45825;45.434;9.116;2023-05-23T07:20:45;100043.78;;;21.21;74.21
59971;BME280;45825;45.434;9.116;2023-05-23T07:23:10;100035.28;;;21.26;72.92
59971;BME280;45825;45.434;9.116;2023-05-23T07:25:35;100043.81;;;21.29;72.88
59971;BME280;45825;45.434;9.116;2023-05-23T07:28:01;100042.19;;;21.37;72.64
59971;BME280;45825;45.434;9.116;2023-05-23T07:30:26;100041.56;;;21.51;72.37
59971;BME280;45825;45.434;9.116;2023-05-23T07:32:51;100045.16;;;21.68;70.29
59971;BME280;45825;45.434;9.116;2023-05-23T07:35:17;100037.97;;;21.69;70.75
59971;BME280;45825;45.434;9.116;2023-05-23T07:37:48;100044.09;;;21.61;67.69
59971;BME280;45825;45.434;9.116;2023-05-23T07:40:13;100048.19;;;21.73;67.97
59971;BME280;45825;45.434;9.116;2023-05-23T07:42:38;100046.88;;;21.86;67.68
59971;BME280;45825;45.434;9.116;2023-05-23T07:45:04;100045.84;;;21.79;69.04
59971;BME280;45825;45.434;9.116;2023-05-23T07:47:30;100046.22;;;21.92;69.51
59971;BME280;45825;45.434;9.116;2023-05-23T07:49:55;100043.38;;;21.94;70.13
59971;BME280;45825;45.434;9.116;2023-05-23T07:52:20;100044.22;;;22.02;70.75
59971;BME280;45825;45.434;9.116;2023-05-23T07:54:46;100041.91;;;22.08;70.33
59971;BME280;45825;45.434;9.116;2023-05-23T07:57:11;100045.25;;;22.18;70.09
59971;BME280;45825;45.434;9.116;2023-05-23T07:59:37;100037.38;;;22.25;68.81
59971;BME280;45825;45.434;9.116;2023-05-23T08:02:06;100030.00;;;22.27;68.10
59971;BME280;45825;45.434;9.116;2023-05-23T08:04:31;100036.03;;;22.37;67.96
59971;BME280;45825;45.434;9.116;2023-05-23T08:06:58;100042.41;;;22.44;67.61
59971;BME280;45825;45.434;9.116;2023-05-23T08:09:24;100036.22;;;22.27;68.06
59971;BME280;45825;45.434;9.116;2023-05-23T08:11:50;100024.16;;;22.31;67.56
59971;BME280;45825;45.434;9.116;2023-05-23T08:14:15;100027.00;;;22.38;67.05
59971;BME280;45825;45.434;9.116;2023-05-23T08:16:40;100023.13;;;22.24;68.03
59971;BME280;45825;45.434;9.116;2023-05-23T08:19:06;100028.81;;;22.38;67.24
59971;BME280;45825;45.434;9.116;2023-05-23T08:21:32;100022.31;;;22.49;66.79
59971;BME280;45825;45.434;9.116;2023-05-23T08:23:57;100020.16;;;22.52;67.08
59971;BME280;45825;45.434;9.116;2023-05-23T08:26:23;100018.28;;;22.44;67.30
59971;BME280;45825;45.434;9.116;2023-05-23T08:28:48;100022.97;;;22.42;67.21
59971;BME280;45825;45.434;9.116;2023-05-23T08:31:14;100026.13;;;22.46;68.64
59971;BME280;45825;45.434;9.116;2023-05-23T08:33:39;100023.50;;;22.54;67.14
59971;BME280;45825;45.434;9.116;2023-05-23T08:36:04;100026.81;;;22.65;67.03
59971;BME280;45825;45.434;9.116;2023-05-23T08:38:30;100013.56;;;22.71;66.77
59971;BME280;45825;45.434;9.116;2023-05-23T08:41:00;100026.47;;;22.68;65.13
59971;BME280;45825;45.434;9.116;2023-05-23T08:43:25;100020.09;;;22.69;65.57
59971;BME280;45825;45.434;9.116;2023-05-23T08:45:51;100016.25;;;22.80;65.48
59971;BME280;45825;45.434;9.116;2023-05-23T08:48:18;100023.25;;;22.89;64.75
59971;BME280;45825;45.434;9.116;2023-05-23T08:50:46;100020.50;;;23.06;63.49
59971;BME280;45825;45.434;9.116;2023-05-23T08:53:15;100024.97;;;23.22;62.25
59971;BME280;45825;45.434;9.116;2023-05-23T08:55:46;100028.84;;;23.27;61.76
59971;BME280;45825;45.434;9.116;2023-05-23T08:58:12;100025.00;;;23.30;62.45
59971;BME280;45825;45.434;9.116;2023-05-23T09:00:38;100018.22;;;23.42;62.03
59971;BME280;45825;45.434;9.116;2023-05-23T09:03:04;100022.28;;;23.62;60.98
59971;BME280;45825;45.434;9.116;2023-05-23T09:05:30;100029.81;;;23.66;60.36
59971;BME280;45825;45.434;9.116;2023-05-23T09:07:56;100020.63;;;23.61;59.76
59971;BME280;45825;45.434;9.116;2023-05-23T09:10:21;100024.91;;;23.78;60.06
59971;BME280;45825;45.434;9.116;2023-05-23T09:12:47;100028.22;;;23.80;59.67
59971;BME280;45825;45.434;9.116;2023-05-23T09:15:12;100019.66;;;23.85;58.41
59971;BME280;45825;45.434;9.116;2023-05-23T09:17:38;100020.78;;;23.91;58.53
59971;BME280;45825;45.434;9.116;2023-05-23T09:20:14;100017.94;;;23.92;58.39
59971;BME280;45825;45.434;9.116;2023-05-23T09:22:40;100014.97;;;24.10;58.56
59971;BME280;45825;45.434;9.116;2023-05-23T09:25:06;100021.28;;;24.18;59.32
59971;BME280;45825;45.434;9.116;2023-05-23T09:27:31;100012.97;;;24.27;59.27
59971;BME280;45825;45.434;9.116;2023-05-23T09:29:57;100016.66;;;24.50;58.02
59971;BME280;45825;45.434;9.116;2023-05-23T09:32:22;100012.56;;;24.54;58.11
59971;BME280;45825;45.434;9.116;2023-05-23T09:35:03;100010.63;;;24.63;58.66
59971;BME280;45825;45.434;9.116;2023-05-23T09:37:37;100007.66;;;24.58;59.50
59971;BME280;45825;45.434;9.116;2023-05-23T09:40:07;100003.31;;;24.72;58.64
59971;BME280;45825;45.434;9.116;2023-05-23T09:42:34;100000.91;;;24.77;58.44
59971;BME280;45825;45.434;9.116;2023-05-23T09:45:00;100006.78;;;24.80;57.61
59971;BME280;45825;45.434;9.116;2023-05-23T09:47:25;100008.84;;;24.93;57.92
59971;BME280;45825;45.434;9.116;2023-05-23T09:49:51;99996.50;;;24.99;56.16
59971;BME280;45825;45.434;9.116;2023-05-23T09:52:17;100001.50;;;25.02;55.46
59971;BME280;45825;45.434;9.116;2023-05-23T09:54:44;100002.31;;;25.03;54.73
59971;BME280;45825;45.434;9.116;2023-05-23T09:57:11;100005.47;;;25.06;55.76
59971;BME280;45825;45.434;9.116;2023-05-23T09:59:40;99994.88;;;25.20;54.90
59971;BME280;45825;45.434;9.116;2023-05-23T10:02:07;99992.06;;;25.28;54.26
59971;BME280;45825;45.434;9.116;2023-05-23T10:04:36;99992.25;;;25.42;56.13
59971;BME280;45825;45.434;9.116;2023-05-23T10:07:22;99989.16;;;25.45;54.17
59971;BME280;45825;45.434;9.116;2023-05-23T10:09:56;99986.41;;;25.53;51.30
59971;BME280;45825;45.434;9.116;2023-05-23T10:15:02;99993.91;;;25.79;52.93
59971;BME280;45825;45.434;9.116;2023-05-23T10:18:00;99990.56;;;25.77;52.72
59971;BME280;45825;45.434;9.116;2023-05-23T10:20:28;99984.03;;;25.87;50.93
59971;BME280;45825;45.434;9.116;2023-05-23T10:22:58;99984.72;;;25.95;50.19
59971;BME280;45825;45.434;9.116;2023-05-23T10:25:23;99985.88;;;26.08;48.24
59971;BME280;45825;45.434;9.116;2023-05-23T10:27:49;99974.72;;;26.11;46.85
59971;BME280;45825;45.434;9.116;2023-05-23T10:30:15;99978.63;;;26.08;48.18
59971;BME280;45825;45.434;9.116;2023-05-23T10:32:41;99978.88;;;26.14;49.42
59971;BME280;45825;45.434;9.116;2023-05-23T10:35:24;99972.00;;;26.33;49.55
59971;BME280;45825;45.434;9.116;2023-05-23T10:38:03;99978.91;;;26.42;48.55
59971;BME280;45825;45.434;9.116;2023-05-23T10:43:48;99964.06;;;26.25;49.45
59971;BME280;45825;45.434;9.116;2023-05-23T10:46:18;99966.50;;;26.48;50.98
59971;BME280;45825;45.434;9.116;2023-05-23T10:48:45;99973.41;;;26.57;48.34
59971;BME280;45825;45.434;9.116;2023-05-23T10:51:12;99958.56;;;26.75;50.00
59971;BME280;45825;45.434;9.116;2023-05-23T10:53:45;99953.84;;;26.84;47.58
59971;BME280;45825;45.434;9.116;2023-05-23T10:56:18;99949.56;;;26.89;47.56
59971;BME280;45825;45.434;9.116;2023-05-23T10:58:51;99945.34;;;26.87;47.68
59971;BME280;45825;45.434;9.116;2023-05-23T11:01:16;99944.50;;;26.86;47.79
59971;BME280;45825;45.434;9.116;2023-05-23T11:06:32;99935.28;;;27.09;47.50
59971;BME280;45825;45.434;9.116;2023-05-23T11:09:09;99937.22;;;27.29;50.47
59971;BME280;45825;45.434;9.116;2023-05-23T11:14:16;99936.41;;;27.28;45.72
59971;BME280;45825;45.434;9.116;2023-05-23T11:16:42;99932.88;;;27.41;44.88
59971;BME280;45825;45.434;9.116;2023-05-23T11:21:44;99930.03;;;27.56;44.12
59971;BME280;45825;45.434;9.116;2023-05-23T11:24:10;99920.69;;;27.66;45.76
59971;BME280;45825;45.434;9.116;2023-05-23T11:26:35;99929.22;;;27.83;46.22
59971;BME280;45825;45.434;9.116;2023-05-23T11:29:00;99918.22;;;27.91;44.01
59971;BME280;45825;45.434;9.116;2023-05-23T11:31:28;99923.00;;;27.96;44.16
59971;BME280;45825;45.434;9.116;2023-05-23T11:33:53;99918.63;;;28.01;44.57
59971;BME280;45825;45.434;9.116;2023-05-23T11:36:22;99916.53;;;28.17;45.72
59971;BME280;45825;45.434;9.116;2023-05-23T11:38:51;99915.72;;;28.23;44.38
59971;BME280;45825;45.434;9.116;2023-05-23T11:41:17;99914.28;;;28.34;44.94
59971;BME280;45825;45.434;9.116;2023-05-23T11:43:52;99913.22;;;28.28;43.80
59971;BME280;45825;45.434;9.116;2023-05-23T11:46:18;99904.69;;;28.32;42.90
59971;BME280;45825;45.434;9.116;2023-05-23T11:48:47;99903.25;;;28.29;43.88
59971;BME280;45825;45.434;9.116;2023-05-23T11:51:13;99909.25;;;28.17;42.34
59971;BME280;45825;45.434;9.116;2023-05-23T11:53:40;99907.00;;;28.28;40.98
59971;BME280;45825;45.434;9.116;2023-05-23T11:56:05;99895.13;;;28.29;41.54
59971;BME280;45825;45.434;9.116;2023-05-23T11:58:36;99895.50;;;28.46;42.38
59971;BME280;45825;45.434;9.116;2023-05-23T12:01:03;99896.72;;;28.50;41.70
59971;BME280;45825;45.434;9.116;2023-05-23T12:03:30;99891.75;;;28.47;42.66
59971;BME280;45825;45.434;9.116;2023-05-23T12:05:56;99892.97;;;28.58;42.11
59971;BME280;45825;45.434;9.116;2023-05-23T12:08:21;99888.56;;;28.70;41.46
59971;BME280;45825;45.434;9.116;2023-05-23T12:10:51;99886.00;;;28.89;41.50
59971;BME280;45825;45.434;9.116;2023-05-23T12:13:17;99881.88;;;28.73;39.46
59971;BME280;45825;45.434;9.116;2023-05-23T12:15:43;99889.56;;;28.83;37.96
59971;BME280;45825;45.434;9.116;2023-05-23T12:18:08;99889.50;;;28.96;39.84
59971;BME280;45825;45.434;9.116;2023-05-23T12:20:34;99887.19;;;29.00;38.29
59971;BME280;45825;45.434;9.116;2023-05-23T12:23:03;99880.41;;;28.84;38.25
59971;BME280;45825;45.434;9.116;2023-05-23T12:25:39;99877.41;;;28.99;38.61
59971;BME280;45825;45.434;9.116;2023-05-23T12:28:05;99876.31;;;29.07;37.43
59971;BME280;45825;45.434;9.116;2023-05-23T12:30:40;99874.50;;;29.00;39.65
59971;BME280;45825;45.434;9.116;2023-05-23T12:33:09;99877.06;;;28.89;44.98
59971;BME280;45825;45.434;9.116;2023-05-23T12:35:36;99862.41;;;28.51;43.76
59971;BME280;45825;45.434;9.116;2023-05-23T12:38:04;99862.47;;;28.30;44.07
59971;BME280;45825;45.434;9.116;2023-05-23T12:40:31;99861.03;;;28.21;41.48
59971;BME280;45825;45.434;9.116;2023-05-23T12:42:56;99858.50;;;28.26;42.08
59971;BME280;45825;45.434;9.116;2023-05-23T12:45:23;99851.25;;;28.20;40.65
59971;BME280;45825;45.434;9.116;2023-05-23T12:47:49;99852.66;;;28.43;40.94
59971;BME280;45825;45.434;9.116;2023-05-23T12:50:14;99852.03;;;28.41;39.99
59971;BME280;45825;45.434;9.116;2023-05-23T12:52:40;99844.31;;;28.51;40.08
59971;BME280;45825;45.434;9.116;2023-05-23T12:55:07;99849.81;;;28.70;42.36
59971;BME280;45825;45.434;9.116;2023-05-23T12:57:34;99845.63;;;28.81;41.27
59971;BME280;45825;45.434;9.116;2023-05-23T12:59:59;99846.19;;;28.96;38.98
59971;BME280;45825;45.434;9.116;2023-05-23T13:02:26;99843.44;;;29.03;37.67
59971;BME280;45825;45.434;9.116;2023-05-23T13:04:52;99835.59;;;28.95;36.96
59971;BME280;45825;45.434;9.116;2023-05-23T13:07:17;99838.03;;;29.03;38.59
59971;BME280;45825;45.434;9.116;2023-05-23T13:09:42;99831.59;;;28.97;36.27
59971;BME280;45825;45.434;9.116;2023-05-23T13:12:08;99832.41;;;29.05;37.29